^^
Datos históricos de la estación: Murcia-Puente Tocinos
Diario Informe para Junio 27, 2019 Unidades:  Métrico    Ingés   Ambas
Diario Semanal Mensual Anual
  Máxima: Mínima: Promedio:
Temperatura: 23.1 °C 13.2 °C 17.9 °C
Punto de rocio: 10.6 °C 5.4 °C 7.8 °C
Humedad: 75% 37.4% 53%
Velocidad viento: 15.6km/h 0km/h 8km/h
Racha viento: 29.6km/h - -
Viento- - SE
Presión: 1025.1 hPa 1021.9 hPa -
Precipitación: 0.0 mm    
 
 
Tabla de datos para Junio 27, 2019
Hora Temperatura Punto de rocio Presión Viento Velocidad viento Racha viento Humedad Intensidad lluvia(por hora) Nubes
00:04 16.4 °C 9.6 °C 1024.0 hPa NE 2.9 km/h 5 km/h 64% 0.0 mm
00:09 16.3 °C 9.7 °C 1024.0 hPa NE 2.9 km/h 5.6 km/h 65% 0.0 mm
00:14 16.2 °C 9.7 °C 1024.0 hPa North 2.9 km/h 5.6 km/h 65.1% 0.0 mm
00:19 16.1 °C 9.7 °C 1024.0 hPa North 2.7 km/h 4.8 km/h 66% 0.0 mm
00:24 15.9 °C 9.6 °C 1024.0 hPa North 2.2 km/h 5.6 km/h 66.3% 0.0 mm
00:29 15.8 °C 9.6 °C 1024.0 hPa North 2.2 km/h 4.8 km/h 67% 0.0 mm
00:34 15.7 °C 9.7 °C 1024.0 hPa North 2.2 km/h 5.8 km/h 67.7% 0.0 mm
00:39 15.6 °C 9.7 °C 1024.0 hPa North 2.2 km/h 6.4 km/h 68.3% 0.0 mm
00:44 15.4 °C 9.7 °C 1024.0 hPa North 2.2 km/h 4.8 km/h 69% 0.0 mm
00:49 15.3 °C 9.7 °C 1024.0 hPa North 1.5 km/h 3.2 km/h 69% 0.0 mm
00:54 15.2 °C 9.8 °C 1024.0 hPa Calm     69.8% 0.0 mm
00:59 15.2 °C 10 °C 1024.0 hPa Calm   5.8 km/h 70.9% 0.0 mm
01:04 15.2 °C 10.1 °C 1024.0 hPa Calm   6.4 km/h 71.8% 0.0 mm
01:09 15.2 °C 10.2 °C 1023.9 hPa Oeste 0.9 km/h 4.8 km/h 72% 0.0 mm
01:14 15.2 °C 10.2 °C 1023.9 hPa Oeste 2.9 km/h 5.8 km/h 72.1% 0.0 mm
01:19 15.1 °C 10.3 °C 1024.0 hPa Oeste 3 km/h 6.9 km/h 72.8% 0.0 mm
01:24 15.1 °C 10.4 °C 1024.0 hPa Oeste 3.2 km/h 8 km/h 73.4% 0.0 mm
01:29 15.1 °C 10.6 °C 1024.0 hPa Oeste 3.8 km/h 8.4 km/h 74.6% 0.0 mm
01:34 15 °C 10.6 °C 1024.0 hPa Oeste 5 km/h 8.4 km/h 75% 0.0 mm
01:39 14.9 °C 10.5 °C 1024.0 hPa Oeste 4.9 km/h 8 km/h 75% 0.0 mm
01:44 14.9 °C 10.6 °C 1024.0 hPa SO 4.6 km/h 6.9 km/h 75% 0.0 mm
01:49 15 °C 10.4 °C 1024.0 hPa SE 4.4 km/h 11.1 km/h 74.3% 0.0 mm
01:54 14.8 °C 10.1 °C 1024.0 hPa SSE 3.9 km/h 11.3 km/h 73.3% 0.0 mm
01:59 14.8 °C 10 °C 1024.0 hPa Sur 4.7 km/h 9.7 km/h 73% 0.0 mm
02:04 14.8 °C 10 °C 1024.0 hPa SO 5.8 km/h 9.7 km/h 73% 0.0 mm
02:09 14.9 °C 10.1 °C 1023.9 hPa SO 5.8 km/h 9.7 km/h 73% 0.0 mm
02:14 15.1 °C 10.3 °C 1023.9 hPa SO 5.8 km/h 9.7 km/h 73% 0.0 mm
02:19 15.2 °C 10.3 °C 1023.9 hPa SO 5.1 km/h 8 km/h 73% 0.0 mm
02:24 15.2 °C 10.4 °C 1023.7 hPa SO 3.9 km/h 9.3 km/h 73% 0.0 mm
02:29 15.2 °C 10.4 °C 1023.7 hPa SO 4.2 km/h 9.7 km/h 73% 0.0 mm
02:34 15.3 °C 10.5 °C 1023.7 hPa SO 5 km/h 8.7 km/h 73% 0.0 mm
02:39 15.3 °C 10.5 °C 1023.7 hPa SO 4.6 km/h 8 km/h 73% 0.0 mm
02:44 15.2 °C 10.2 °C 1023.7 hPa Sur 3.9 km/h 7.4 km/h 72.2% 0.0 mm
02:49 15.1 °C 10 °C 1023.7 hPa Sur 4.1 km/h 9.5 km/h 71.8% 0.0 mm
02:54 14.8 °C 9.6 °C 1023.6 hPa SSE 4.6 km/h 11.9 km/h 71% 0.0 mm
02:59 14.7 °C 9.3 °C 1023.6 hPa SSE 5.9 km/h 13 km/h 70.4% 0.0 mm
03:04 14.4 °C 9.1 °C 1023.6 hPa Sur 7.6 km/h 12.9 km/h 70% 0.0 mm
03:09 14.4 °C 9 °C 1023.4 hPa SSO 7.6 km/h 11.3 km/h 70% 0.0 mm
03:14 14.4 °C 9 °C 1023.4 hPa Sur 7.6 km/h 14.8 km/h 70% 0.0 mm
03:19 14.3 °C 8.9 °C 1023.4 hPa Sur 8 km/h 14.5 km/h 70% 0.0 mm
03:24 14.3 °C 8.7 °C 1023.3 hPa SSE 8.7 km/h 15.6 km/h 69% 0.0 mm
03:29 14.2 °C 8.4 °C 1023.3 hPa Sur 9.2 km/h 18.5 km/h 67.9% 0.0 mm
03:34 14.1 °C 8.1 °C 1023.3 hPa SSO 10 km/h 19.3 km/h 66.9% 0.0 mm
03:39 14.1 °C 7.8 °C 1023.1 hPa SSO 10.3 km/h 17.7 km/h 65.8% 0.0 mm
03:44 14.2 °C 7.7 °C 1023.1 hPa SSO 11.1 km/h 17.7 km/h 65% 0.0 mm
03:49 14.2 °C 7.4 °C 1023.1 hPa SSO 10.3 km/h 14.8 km/h 63.5% 0.0 mm
03:54 14.3 °C 7.2 °C 1023.0 hPa SSO 8.7 km/h 14.5 km/h 62.2% 0.0 mm
03:59 14.5 °C 6.9 °C 1023.0 hPa SSO 8.5 km/h 13 km/h 60.2% 0.0 mm
04:04 14.7 °C 6.7 °C 1023.0 hPa SSO 8.4 km/h 12.9 km/h 59% 0.0 mm
04:09 14.7 °C 6.7 °C 1022.9 hPa SO 8.1 km/h 11.3 km/h 58.9% 0.0 mm
04:14 14.7 °C 6.5 °C 1022.9 hPa SSO 7.6 km/h 10.3 km/h 58% 0.0 mm
04:19 14.7 °C 6.5 °C 1022.9 hPa Sur 7 km/h 9.7 km/h 58% 0.0 mm
04:24 14.7 °C 6.7 °C 1022.9 hPa Sur 5.8 km/h 16.1 km/h 58.8% 0.0 mm
04:29 14.5 °C 6.7 °C 1022.9 hPa SSE 6.8 km/h 19 km/h 59.5% 0.0 mm
04:34 14.3 °C 6.5 °C 1022.9 hPa Sur 8.7 km/h 22 km/h 59.5% 0.0 mm
04:39 14.2 °C 6.3 °C 1022.9 hPa SSO 9.9 km/h 22.5 km/h 59% 0.0 mm
04:44 14.2 °C 6.2 °C 1022.9 hPa SSO 12.2 km/h 22.5 km/h 58.7% 0.0 mm
04:49 14.3 °C 6 °C 1022.9 hPa SSO 11.4 km/h 17.7 km/h 57.7% 0.0 mm
04:54 14.3 °C 5.9 °C 1022.9 hPa SSO 10 km/h 14.8 km/h 57% 0.0 mm
04:59 14.4 °C 5.8 °C 1022.9 hPa SSO 9.4 km/h 14.5 km/h 56.1% 0.0 mm
05:04 14.5 °C 5.8 °C 1022.9 hPa SO 8.7 km/h 14.5 km/h 55.7% 0.0 mm
05:09 14.6 °C 5.7 °C 1022.8 hPa SO 8.6 km/h 11.3 km/h 55% 0.0 mm
05:14 14.7 °C 5.7 °C 1022.8 hPa OSO 8.4 km/h 11.3 km/h 55% 0.0 mm
05:19 14.6 °C 5.7 °C 1022.9 hPa SO 7.5 km/h 8 km/h 55% 0.0 mm
05:24 14.6 °C 5.7 °C 1022.9 hPa OSO 5.8 km/h 8 km/h 55.1% 0.0 mm
05:29 14.5 °C 5.8 °C 1022.9 hPa OSO 5.1 km/h 10.3 km/h 56% 0.0 mm
05:34 14.4 °C 5.7 °C 1022.9 hPa OSO 3.9 km/h 11.3 km/h 56.1% 0.0 mm
05:39 14.3 °C 5.7 °C 1022.9 hPa OSO 4.5 km/h 11.1 km/h 56.5% 0.0 mm
05:44 14.2 °C 5.7 °C 1022.9 hPa Oeste 5.8 km/h 11.3 km/h 56.8% 0.0 mm
05:49 14.1 °C 5.8 °C 1023.0 hPa OSO 5.5 km/h 11.9 km/h 57.4% 0.0 mm
05:54 13.9 °C 5.7 °C 1023.0 hPa SO 5 km/h 12.2 km/h 57.6% 0.0 mm
05:59 13.9 °C 5.7 °C 1023.0 hPa OSO 5.6 km/h 12.9 km/h 57.9% 0.0 mm
06:04 13.9 °C 5.6 °C 1023.1 hPa OSO 6.5 km/h 11.1 km/h 57.3% 0.0 mm
06:09 13.9 °C 5.4 °C 1023.1 hPa SO 6.6 km/h 13 km/h 56.6% 0.0 mm
06:14 14 °C 5.6 °C 1023.1 hPa Oeste 6.9 km/h 12.9 km/h 57% 0.0 mm
06:19 14 °C 5.4 °C 1023.2 hPa SO 6.9 km/h 13.7 km/h 56.2% 0.0 mm
06:24 14.1 °C 5.4 °C 1023.2 hPa OSO 6.9 km/h 14.5 km/h 56% 0.0 mm
06:29 14.1 °C 5.4 °C 1023.2 hPa OSO 6.6 km/h 9.7 km/h 56.2% 0.0 mm
06:34 13.9 °C 5.5 °C 1023.3 hPa OSO 5.8 km/h 9.7 km/h 57% 0.0 mm
06:39 13.8 °C 5.5 °C 1023.3 hPa OSO 5.8 km/h 9.3 km/h 57.2% 0.0 mm
06:44 13.7 °C 5.6 °C 1023.3 hPa OSO 5.8 km/h 10 km/h 58% 0.0 mm
06:49 13.6 °C 5.5 °C 1023.5 hPa OSO 5.8 km/h 10 km/h 58% 0.0 mm
06:54 13.6 °C 5.5 °C 1023.5 hPa OSO 5.8 km/h 9.7 km/h 58% 0.0 mm
06:59 13.6 °C 5.5 °C 1023.5 hPa OSO 5.3 km/h 9.7 km/h 58% 0.0 mm
07:04 13.5 °C 5.6 °C 1023.6 hPa Oeste 4.6 km/h 8 km/h 58.8% 0.0 mm
07:09 13.4 °C 5.7 °C 1023.6 hPa Oeste 4.4 km/h 8 km/h 59.6% 0.0 mm
07:14 13.3 °C 5.7 °C 1023.6 hPa Oeste 3.9 km/h 8 km/h 60% 0.0 mm
07:19 13.2 °C 5.9 °C 1023.7 hPa SSE 3.6 km/h 8 km/h 60.9% 0.0 mm
07:24 13.2 °C 5.8 °C 1023.7 hPa OSO 3.2 km/h 8 km/h 61% 0.0 mm
07:29 13.2 °C 5.8 °C 1023.7 hPa Oeste 3.2 km/h 6.4 km/h 61% 0.0 mm
07:34 13.2 °C 5.9 °C 1023.9 hPa SSO 3.2 km/h 7.4 km/h 61% 0.0 mm
07:39 13.3 °C 5.8 °C 1023.9 hPa Sur 3.4 km/h 8 km/h 60.5% 0.0 mm
07:44 13.4 °C 5.8 °C 1023.9 hPa Sur 3.9 km/h 7.6 km/h 60% 0.0 mm
07:49 13.6 °C 5.9 °C 1024.1 hPa SSO 3.9 km/h 8.7 km/h 59.8% 0.0 mm
07:54 13.7 °C 5.9 °C 1024.1 hPa SO 3.9 km/h 9.7 km/h 59% 0.0 mm
07:59 13.8 °C 5.9 °C 1024.1 hPa SO 4.4 km/h 9.7 km/h 58.7% 0.0 mm
08:04 14 °C 5.8 °C 1024.3 hPa OSO 5 km/h 8 km/h 58% 0.0 mm
08:09 14.2 °C 5.8 °C 1024.3 hPa OSO 4.9 km/h 8.4 km/h 57.3% 0.0 mm
08:14 14.3 °C 5.8 °C 1024.3 hPa SO 4.6 km/h 8 km/h 57% 0.0 mm
08:19 14.4 °C 5.9 °C 1024.3 hPa SO 4.4 km/h 8 km/h 56.7% 0.0 mm
08:24 14.5 °C 5.8 °C 1024.3 hPa SO 3.9 km/h 8.4 km/h 56% 0.0 mm
08:29 14.7 °C 5.8 °C 1024.3 hPa OSO 4.1 km/h 8.7 km/h 55.4% 0.0 mm
08:34 14.8 °C 5.7 °C 1024.6 hPa OSO 4.7 km/h 10 km/h 54.6% 0.0 mm
08:39 14.8 °C 5.7 °C 1024.6 hPa OSO 5 km/h 10 km/h 54.5% 0.0 mm
08:44 14.9 °C 5.7 °C 1024.6 hPa OSO 5.8 km/h 9.7 km/h 54.3% 0.0 mm
08:49 15 °C 5.7 °C 1024.7 hPa OSO 5.5 km/h 9.7 km/h 54% 0.0 mm
08:54 15.2 °C 5.9 °C 1024.7 hPa SO 5 km/h 9.7 km/h 54% 0.0 mm
08:59 15.3 °C 5.9 °C 1024.7 hPa SSO 4.8 km/h 9.7 km/h 53.5% 0.0 mm
09:04 15.5 °C 6 °C 1024.9 hPa SO 4.6 km/h 10 km/h 53.1% 0.0 mm
09:09 15.7 °C 6 °C 1024.9 hPa SSO 5 km/h 11.1 km/h 52.6% 0.0 mm
09:14 15.8 °C 5.7 °C 1024.9 hPa Oeste 5.8 km/h 13.7 km/h 51.3% 0.0 mm
09:19 15.8 °C 5.5 °C 1024.9 hPa OSO 6.6 km/h 15.6 km/h 50.3% 0.0 mm
09:24 15.8 °C 5.5 °C 1024.9 hPa OSO 8.4 km/h 16.1 km/h 50.1% 0.0 mm
09:29 16 °C 5.6 °C 1024.9 hPa OSO 7.9 km/h 13 km/h 50% 0.0 mm
09:34 16.1 °C 5.5 °C 1025.0 hPa OSO 6.9 km/h 14.8 km/h 49.3% 0.0 mm
09:39 16.2 °C 5.4 °C 1025.0 hPa SO 7.4 km/h 14.8 km/h 49% 0.0 mm
09:44 16.3 °C 5.6 °C 1025.0 hPa OSO 8.4 km/h 11.9 km/h 49.1% 0.0 mm
09:49 16.4 °C 5.8 °C 1025.0 hPa OSO 7.7 km/h 11.3 km/h 49.6% 0.0 mm
09:54 16.6 °C 5.8 °C 1024.9 hPa OSO 6.5 km/h 9.7 km/h 49% 0.0 mm
09:59 16.7 °C 5.6 °C 1024.9 hPa SO 6.5 km/h 10 km/h 48.1% 0.0 mm
10:04 16.7 °C 5.5 °C 1024.9 hPa SO 6.5 km/h 10 km/h 47.5% 0.0 mm
10:09 16.8 °C 5.7 °C 1024.9 hPa OSO 6 km/h 9.7 km/h 48% 0.0 mm
10:14 17 °C 5.7 °C 1024.9 hPa Oeste 5 km/h 10.3 km/h 47.4% 0.0 mm
10:19 17.2 °C 5.8 °C 1024.9 hPa SO 5.4 km/h 13 km/h 47.2% 0.0 mm
10:24 17.4 °C 5.9 °C 1024.9 hPa SSE 6.5 km/h 12.9 km/h 47% 0.0 mm
10:29 17.6 °C 5.8 °C 1024.9 hPa Oeste 5.6 km/h 10 km/h 45.9% 0.0 mm
10:34 17.7 °C 5.7 °C 1024.9 hPa ONO 3.9 km/h 9.7 km/h 45.3% 0.0 mm
10:39 17.8 °C 5.9 °C 1024.9 hPa ONO 3.9 km/h 8 km/h 45.7% 0.0 mm
10:44 17.9 °C 5.9 °C 1024.9 hPa Oeste 3.9 km/h 11.1 km/h 45.2% 0.0 mm
10:49 18 °C 5.9 °C 1025.0 hPa SO 4.2 km/h 11.3 km/h 45% 0.0 mm
10:54 18.1 °C 5.9 °C 1025.0 hPa SSE 5 km/h 11.3 km/h 45% 0.0 mm
10:59 18.3 °C 6 °C 1025.0 hPa Este 4.5 km/h 8 km/h 44.3% 0.0 mm
11:04 18.7 °C 6.2 °C 1025.0 hPa NO 3.9 km/h 7.6 km/h 44% 0.0 mm
11:09 18.9 °C 6.3 °C 1025.0 hPa ONO 3.6 km/h 11.1 km/h 43.8% 0.0 mm
11:14 18.9 °C 6.2 °C 1025.0 hPa ONO 3.2 km/h 11.3 km/h 43.4% 0.0 mm
11:19 18.8 °C 6.1 °C 1025.0 hPa North 3.8 km/h 9.7 km/h 43.3% 0.0 mm
11:24 19.1 °C 6.2 °C 1025.0 hPa Este 5 km/h 8.4 km/h 42.9% 0.0 mm
11:29 19.3 °C 6.1 °C 1025.0 hPa SSE 4.6 km/h 9.5 km/h 42% 0.0 mm
11:34 19.4 °C 6.2 °C 1025.1 hPa Este 3.9 km/h 9.7 km/h 42.2% 0.0 mm
11:39 19.7 °C 6.4 °C 1025.1 hPa Sur 3.6 km/h 8.4 km/h 42% 0.0 mm
11:44 19.9 °C 6.4 °C 1025.1 hPa Oeste 3.2 km/h 9.5 km/h 41.5% 0.0 mm
11:49 19.8 °C 6.2 °C 1025.1 hPa ONO 3.7 km/h 11.1 km/h 41% 0.0 mm
11:54 19.7 °C 6.1 °C 1025.1 hPa NO 4.7 km/h 11.3 km/h 41.2% 0.0 mm
11:59 19.7 °C 6.1 °C 1025.1 hPa ONO 4.8 km/h 9.7 km/h 41.1% 0.0 mm
12:04 19.9 °C 6.5 °C 1025.1 hPa NNO 5 km/h 9.3 km/h 41.7% 0.0 mm
12:09 19.9 °C 6.3 °C 1025.0 hPa ONO 5 km/h 9.7 km/h 41% 0.0 mm
12:14 20.2 °C 6.6 °C 1025.0 hPa North 5 km/h 8 km/h 41.1% 0.0 mm
12:19 20.7 °C 6.8 °C 1025.0 hPa Este 4.3 km/h 11.1 km/h 40.6% 0.0 mm
12:24 20.8 °C 6.7 °C 1024.9 hPa Este 2.9 km/h 16.7 km/h 39.9% 0.0 mm
12:29 20.8 °C 6.8 °C 1024.9 hPa Este 4 km/h 16.1 km/h 40% 0.0 mm
12:34 20.9 °C 6.7 °C 1024.9 hPa ENE 6.5 km/h 16.7 km/h 39.7% 0.0 mm
12:39 20.9 °C 6.8 °C 1024.9 hPa ENE 7.2 km/h 16.7 km/h 40% 0.0 mm
12:44 20.8 °C 7 °C 1024.9 hPa ENE 8.7 km/h 16.7 km/h 40.8% 0.0 mm
12:49 20.8 °C 6.9 °C 1024.9 hPa NNE 9.1 km/h 16.7 km/h 40.7% 0.0 mm
12:54 20.8 °C 7 °C 1024.8 hPa ENE 10 km/h 17.2 km/h 40.6% 0.0 mm
12:59 21.2 °C 6.5 °C 1024.8 hPa NE 9.8 km/h 18.3 km/h 38.6% 0.0 mm
13:04 21.2 °C 6.7 °C 1024.8 hPa NNE 9.5 km/h 19.3 km/h 39.1% 0.0 mm
13:09 21.2 °C 7.2 °C 1024.6 hPa NE 9.7 km/h 19.3 km/h 40.5% 0.0 mm
13:14 21.1 °C 7.3 °C 1024.6 hPa NE 10 km/h 19.8 km/h 40.8% 0.0 mm
13:19 21.2 °C 7.2 °C 1024.6 hPa NNE 9.8 km/h 20.9 km/h 40.4% 0.0 mm
13:24 21.3 °C 7.2 °C 1024.4 hPa NNE 9.5 km/h 20.9 km/h 40.2% 0.0 mm
13:29 21.5 °C 7.3 °C 1024.4 hPa ENE 9.2 km/h 16.7 km/h 39.9% 0.0 mm
13:34 21.7 °C 7.4 °C 1024.4 hPa ENE 8.7 km/h 16.7 km/h 39.6% 0.0 mm
13:39 21.8 °C 7.4 °C 1024.4 hPa Este 8.3 km/h 18.5 km/h 39.3% 0.0 mm
13:44 21.9 °C 7.4 °C 1024.4 hPa Este 7.6 km/h 19.3 km/h 39.2% 0.0 mm
13:49 21.8 °C 7.6 °C 1024.4 hPa NE 8.7 km/h 20.4 km/h 39.9% 0.0 mm
13:54 21.8 °C 7.5 °C 1024.1 hPa NE 11.1 km/h 20.9 km/h 39.6% 0.0 mm
13:59 21.9 °C 7.8 °C 1024.1 hPa NE 10.8 km/h 19 km/h 40.3% 0.0 mm
14:04 21.9 °C 7.7 °C 1024.1 hPa NE 10.3 km/h 19.3 km/h 40.1% 0.0 mm
14:09 21.9 °C 7.8 °C 1023.9 hPa NE 9.8 km/h 17.7 km/h 40.2% 0.0 mm
14:14 22 °C 8 °C 1023.9 hPa NE 8.7 km/h 25.1 km/h 40.5% 0.0 mm
14:19 22.2 °C 8.1 °C 1023.9 hPa NE 9.5 km/h 25.7 km/h 40.5% 0.0 mm
14:24 22.2 °C 7.9 °C 1023.7 hPa North 11.1 km/h 20.9 km/h 39.9% 0.0 mm
14:29 22.2 °C 7.7 °C 1023.7 hPa NE 10.7 km/h 20.9 km/h 39.4% 0.0 mm
14:34 22.1 °C 7.8 °C 1023.7 hPa NE 10 km/h 20.9 km/h 39.6% 0.0 mm
14:39 22.3 °C 7.9 °C 1023.6 hPa Este 10.4 km/h 19.3 km/h 39.8% 0.0 mm
14:44 22.5 °C 7.9 °C 1023.6 hPa ENE 11.1 km/h 19.3 km/h 39.2% 0.0 mm
14:49 22.4 °C 7.7 °C 1023.6 hPa North 10.7 km/h 19.3 km/h 38.8% 0.0 mm
14:54 22.6 °C 8.1 °C 1023.6 hPa North 10 km/h 19.3 km/h 39.4% 0.0 mm
14:59 22.7 °C 8.4 °C 1023.6 hPa NE 9.8 km/h 22.2 km/h 39.9% 0.0 mm
15:04 22.7 °C 8.4 °C 1023.6 hPa NE 9.5 km/h 22.5 km/h 40% 0.0 mm
15:09 22.8 °C 8.3 °C 1023.5 hPa ENE 10.4 km/h 25.9 km/h 39.6% 0.0 mm
15:14 22.7 °C 8.1 °C 1023.5 hPa NE 12.2 km/h 26.2 km/h 39.4% 0.0 mm
15:19 22.4 °C 8 °C 1023.5 hPa NE 12.8 km/h 29.6 km/h 39.7% 0.0 mm
15:24 22.6 °C 8 °C 1023.4 hPa NE 14 km/h 29 km/h 39.2% 0.0 mm
15:29 22.6 °C 7.9 °C 1023.4 hPa ENE 13.4 km/h 22.5 km/h 39% 0.0 mm
15:34 22.6 °C 8.1 °C 1023.4 hPa NE 11.9 km/h 25.9 km/h 39.4% 0.0 mm
15:39 22.6 °C 8 °C 1023.2 hPa NE 12.3 km/h 25.7 km/h 39.2% 0.0 mm
15:44 22.6 °C 8.6 °C 1023.2 hPa ENE 13 km/h 29.1 km/h 40.7% 0.0 mm
15:49 22.6 °C 8.5 °C 1023.2 hPa NE 13.4 km/h 29 km/h 40.5% 0.0 mm
15:54 22.6 °C 8.4 °C 1023.1 hPa North 14 km/h 24.5 km/h 40.1% 0.0 mm
15:59 22.7 °C 8.5 °C 1023.1 hPa NE 13.9 km/h 24.1 km/h 40.3% 0.0 mm
16:04 22.7 °C 8.5 °C 1023.1 hPa NE 13.7 km/h 25.9 km/h 40.3% 0.0 mm
16:09 22.6 °C 8.3 °C 1022.9 hPa NE 13.5 km/h 25.7 km/h 40% 0.0 mm
16:14 22.5 °C 8.3 °C 1022.9 hPa NE 13 km/h 27.8 km/h 40.2% 0.0 mm
16:19 22.3 °C 8.2 °C 1022.9 hPa NE 13.9 km/h 27.4 km/h 40.3% 0.0 mm
16:24 22.4 °C 8.3 °C 1022.7 hPa NE 15.6 km/h 20.9 km/h 40.4% 0.0 mm
16:29 22.6 °C 8.4 °C 1022.7 hPa ENE 13.8 km/h 17.7 km/h 40.3% 0.0 mm
16:34 22.8 °C 8.3 °C 1022.7 hPa NE 10.3 km/h 20.1 km/h 39.5% 0.0 mm
16:39 22.8 °C 8.2 °C 1022.4 hPa NE 10.9 km/h 22.2 km/h 39.3% 0.0 mm
16:44 22.7 °C 8.2 °C 1022.4 hPa NE 11.9 km/h 22.5 km/h 39.4% 0.0 mm
16:49 22.8 °C 8.1 °C 1022.4 hPa NE 12 km/h 22.5 km/h 39.2% 0.0 mm
16:54 22.9 °C 8.2 °C 1022.4 hPa NE 12.2 km/h 27 km/h 39.1% 0.0 mm
16:59 23.1 °C 8.4 °C 1022.4 hPa Este 11.1 km/h 27.8 km/h 39% 0.0 mm
17:04 22.9 °C 8.3 °C 1022.4 hPa ESE 9.5 km/h 27.8 km/h 39.3% 0.0 mm
17:09 22.5 °C 8.1 °C 1022.2 hPa ESE 10.9 km/h 27.8 km/h 39.6% 0.0 mm
17:14 22.5 °C 8.2 °C 1022.2 hPa SE 13.7 km/h 28.2 km/h 39.8% 0.0 mm
17:19 22.4 °C 7.8 °C 1022.2 hPa ESE 14 km/h 27.4 km/h 39.1% 0.0 mm
17:24 22.5 °C 7.8 °C 1022.1 hPa SE 14.8 km/h 22.5 km/h 38.9% 0.0 mm
17:29 22.7 °C 7.6 °C 1022.1 hPa SE 14.4 km/h 22.5 km/h 38% 0.0 mm
17:34 22.7 °C 7.6 °C 1022.1 hPa SE 13.7 km/h 22.5 km/h 37.9% 0.0 mm
17:39 22.8 °C 7.5 °C 1022.1 hPa ESE 13.5 km/h 22.2 km/h 37.4% 0.0 mm
17:44 22.7 °C 7.5 °C 1022.1 hPa ESE 13 km/h 24.1 km/h 37.5% 0.0 mm
17:49 22.7 °C 7.6 °C 1022.1 hPa SE 13 km/h 24.1 km/h 37.8% 0.0 mm
17:54 22.7 °C 7.5 °C 1022.0 hPa SE 13 km/h 24.1 km/h 37.7% 0.0 mm
17:59 22.6 °C 7.5 °C 1022.0 hPa SE 13.3 km/h 22.5 km/h 37.8% 0.0 mm
18:04 22.7 °C 7.6 °C 1022.0 hPa ESE 13.7 km/h 22.5 km/h 38% 0.0 mm
18:09 22.6 °C 7.6 °C 1022.0 hPa ESE 13.5 km/h 22.5 km/h 38% 0.0 mm
18:14 22.6 °C 7.6 °C 1022.0 hPa SE 13 km/h 22.5 km/h 38.2% 0.0 mm
18:19 22.7 °C 7.8 °C 1022.0 hPa SE 12.7 km/h 25.1 km/h 38.4% 0.0 mm
18:24 22.4 °C 7.5 °C 1021.9 hPa SE 11.9 km/h 25.9 km/h 38.3% 0.0 mm
18:29 22.2 °C 7.6 °C 1021.9 hPa SE 13.1 km/h 25.7 km/h 39% 0.0 mm
18:34 22.3 °C 7.6 °C 1022.0 hPa ESE 15.6 km/h 22.5 km/h 39% 0.0 mm
18:39 22.5 °C 7.8 °C 1022.0 hPa ESE 14 km/h 19.3 km/h 38.8% 0.0 mm
18:44 22.5 °C 7.8 °C 1022.0 hPa SE 10.3 km/h 19.3 km/h 38.9% 0.0 mm
18:49 22.3 °C 7.6 °C 1022.0 hPa SE 11.2 km/h 19.8 km/h 38.8% 0.0 mm
18:54 22.3 °C 7.6 °C 1022.0 hPa SE 13 km/h 21.7 km/h 39.1% 0.0 mm
18:59 22.2 °C 8.1 °C 1022.0 hPa SE 13.3 km/h 20.9 km/h 40.4% 0.0 mm
19:04 22.2 °C 7.9 °C 1022.0 hPa ESE 13.7 km/h 21.7 km/h 40% 0.0 mm
19:09 22.2 °C 8.1 °C 1022.0 hPa ESE 12.8 km/h 20.9 km/h 40.4% 0.0 mm
19:14 22.1 °C 8.3 °C 1022.0 hPa ESE 11.1 km/h 20.9 km/h 41.4% 0.0 mm
19:19 22.1 °C 8.2 °C 1022.1 hPa ESE 10.8 km/h 19.3 km/h 41% 0.0 mm
19:24 22.1 °C 8.4 °C 1022.1 hPa SE 10.3 km/h 19.3 km/h 41.4% 0.0 mm
19:29 22 °C 8.5 °C 1022.1 hPa ESE 10.3 km/h 17.2 km/h 42.1% 0.0 mm
19:34 21.8 °C 8.5 °C 1022.1 hPa ESE 10.3 km/h 19 km/h 42.7% 0.0 mm
19:39 21.7 °C 8.3 °C 1022.0 hPa ESE 10.9 km/h 20.4 km/h 42.2% 0.0 mm
19:44 21.7 °C 8.2 °C 1022.0 hPa SE 11.9 km/h 20.9 km/h 42% 0.0 mm
19:49 21.7 °C 8.5 °C 1022.0 hPa ESE 11.3 km/h 20.9 km/h 43% 0.0 mm
19:54 21.4 °C 8.5 °C 1022.0 hPa SE 10 km/h 20.9 km/h 43.7% 0.0 mm
19:59 21.3 °C 8.9 °C 1022.0 hPa ESE 10.5 km/h 19.3 km/h 45% 0.0 mm
20:04 21.3 °C 9.2 °C 1022.0 hPa ESE 11.1 km/h 16.1 km/h 45.9% 0.0 mm
20:09 21.2 °C 9.4 °C 1022.0 hPa SE 10.6 km/h 19 km/h 46.8% 0.0 mm
20:14 21 °C 9.5 °C 1022.0 hPa ESE 9.5 km/h 19.3 km/h 47.6% 0.0 mm
20:19 20.8 °C 9.4 °C 1022.0 hPa ESE 9.2 km/h 16.1 km/h 48.1% 0.0 mm
20:24 20.6 °C 9.5 °C 1022.0 hPa ESE 8.4 km/h 16.7 km/h 48.9% 0.0 mm
20:29 20.4 °C 9.4 °C 1022.0 hPa ENE 8.4 km/h 16.1 km/h 49.2% 0.0 mm
20:34 20.3 °C 9.3 °C 1022.1 hPa NE 8.4 km/h 13.7 km/h 49.4% 0.0 mm
20:39 20.2 °C 10 °C 1022.1 hPa NE 8.4 km/h 14.8 km/h 52% 0.0 mm
20:44 19.9 °C 10.3 °C 1022.1 hPa NE 8.4 km/h 18.5 km/h 54% 0.0 mm
20:49 19.5 °C 10.2 °C 1022.3 hPa NE 9.5 km/h 19.3 km/h 55% 0.0 mm
20:54 19.2 °C 10.1 °C 1022.3 hPa NE 11.9 km/h 19.8 km/h 55.5% 0.0 mm
20:59 19 °C 10.1 °C 1022.3 hPa NE 11.1 km/h 19.3 km/h 56.4% 0.0 mm
21:04 18.8 °C 10.1 °C 1022.4 hPa NE 10 km/h 20.4 km/h 57.1% 0.0 mm
21:09 18.6 °C 10.1 °C 1022.4 hPa NE 10.4 km/h 20.9 km/h 57.8% 0.0 mm
21:14 18.3 °C 10.1 °C 1022.4 hPa NE 11.1 km/h 19.3 km/h 58.8% 0.0 mm
21:19 18.2 °C 10.1 °C 1022.6 hPa NE 10.8 km/h 19.3 km/h 59% 0.0 mm
21:24 18 °C 9.9 °C 1022.6 hPa NE 10.3 km/h 20.4 km/h 59.1% 0.0 mm
21:29 17.8 °C 10 °C 1022.6 hPa NE 10.8 km/h 20.9 km/h 60% 0.0 mm
21:34 17.7 °C 9.9 °C 1022.7 hPa NE 11.9 km/h 24.5 km/h 60.5% 0.0 mm
21:39 17.5 °C 10 °C 1022.7 hPa NE 12.3 km/h 24.1 km/h 61.3% 0.0 mm
21:44 17.3 °C 10.1 °C 1022.7 hPa NE 13 km/h 24.1 km/h 62.5% 0.0 mm
21:49 17.2 °C 10.3 °C 1022.8 hPa NE 12.4 km/h 19.3 km/h 63.8% 0.0 mm
21:54 17.1 °C 10.4 °C 1022.8 hPa NE 11.1 km/h 15.6 km/h 64.8% 0.0 mm
21:59 16.8 °C 10.4 °C 1022.8 hPa NE 10.6 km/h 16.1 km/h 65.9% 0.0 mm
22:04 16.8 °C 10.6 °C 1023.0 hPa NE 10 km/h 17.2 km/h 66.9% 0.0 mm
22:09 16.7 °C 10.5 °C 1023.0 hPa NE 9.8 km/h 17.7 km/h 67% 0.0 mm
22:14 16.5 °C 10.5 °C 1023.0 hPa NE 9.5 km/h 16.1 km/h 67.7% 0.0 mm
22:19 16.4 °C 10.5 °C 1023.3 hPa NNE 9.1 km/h 14.8 km/h 68% 0.0 mm
22:24 16.3 °C 10.5 °C 1023.3 hPa NE 8.4 km/h 14.8 km/h 68.4% 0.0 mm
22:29 16.2 °C 10.5 °C 1023.3 hPa NE 8.4 km/h 14.8 km/h 69% 0.0 mm
22:34 16.1 °C 10.5 °C 1023.5 hPa NE 8.4 km/h 17.2 km/h 69.5% 0.0 mm
22:39 15.9 °C 10.5 °C 1023.5 hPa NE 8.7 km/h 17.7 km/h 70.1% 0.0 mm
22:44 15.8 °C 10.6 °C 1023.5 hPa NE 9.5 km/h 13 km/h 71% 0.0 mm
22:49 15.8 °C 10.6 °C 1023.6 hPa NE 9.2 km/h 13 km/h 71% 0.0 mm
22:54 15.7 °C 10.5 °C 1023.6 hPa NE 8.7 km/h 14.8 km/h 71% 0.0 mm
22:59 15.7 °C 10.4 °C 1023.6 hPa NNE 8.7 km/h 16.1 km/h 71% 0.0 mm
23:04 15.6 °C 10.4 °C 1023.6 hPa NNE 8.7 km/h 16.7 km/h 71.4% 0.0 mm
23:09 15.5 °C 10.4 °C 1023.6 hPa NNE 9 km/h 16.1 km/h 72% 0.0 mm
23:14 15.4 °C 10.4 °C 1023.6 hPa NNE 9.5 km/h 14.5 km/h 72% 0.0 mm
23:19 15.4 °C 10.3 °C 1023.6 hPa NE 9.2 km/h 14.5 km/h 71.4% 0.0 mm
23:24 15.4 °C 10.1 °C 1023.6 hPa NE 8.7 km/h 12.9 km/h 70.7% 0.0 mm
23:29 15.4 °C 10 °C 1023.6 hPa NE 8.3 km/h 11.9 km/h 70% 0.0 mm
23:34 15.4 °C 10 °C 1023.7 hPa NE 7.6 km/h 11.9 km/h 70.3% 0.0 mm
23:39 15.4 °C 10.1 °C 1023.7 hPa NE 7.6 km/h 11.3 km/h 71% 0.0 mm
23:44 15.3 °C 10.1 °C 1023.7 hPa NE 7.6 km/h 12.2 km/h 71% 0.0 mm
23:49 15.2 °C 10.1 °C 1023.7 hPa NE 7.4 km/h 12.9 km/h 71.6% 0.0 mm
23:54 15.2 °C 10.2 °C 1023.7 hPa NE 6.9 km/h 11.3 km/h 72% 0.0 mm
23:59 15.1 °C 10.1 °C 1023.7 hPa NE 7.2 km/h 11.3 km/h 72% 0.0 mm
Murcia-Puente Tocinos, España
Compliments of Weather Underground - 3 mb

La estación de MeteoMurcia.com, publica sus datos en los siguientes proyectos:

Weather Underground PWS IMURCIAP2 Meteoclimatic www.awekas.at

W3Counter
Web Analytics